createdAt,value
2018-08-11T03:01:06.288Z,11.65
2018-08-11T03:02:06.340Z,11.62
2018-08-11T03:03:06.694Z,11.57
2018-08-11T03:04:06.746Z,11.69
2018-08-11T03:05:07.236Z,11.63
2018-08-11T03:06:07.961Z,11.70
2018-08-11T03:07:07.704Z,11.72
2018-08-11T03:08:06.057Z,11.78
2018-08-11T03:09:05.552Z,11.80
2018-08-11T03:10:05.637Z,11.83
2018-08-11T03:11:05.875Z,11.87
2018-08-11T03:12:06.049Z,11.90
2018-08-11T03:13:06.154Z,11.97
2018-08-11T03:14:06.405Z,11.80
2018-08-11T03:15:06.632Z,11.80
2018-08-11T03:16:06.861Z,11.84
2018-08-11T03:17:07.083Z,11.83
2018-08-11T03:18:07.328Z,11.90
2018-08-11T03:19:07.520Z,11.88
2018-08-11T03:20:07.467Z,11.81
2018-08-11T03:21:07.751Z,11.80
2018-08-11T03:22:07.781Z,11.78
2018-08-11T03:23:08.165Z,11.80
2018-08-11T03:24:08.250Z,12.04
2018-08-11T03:25:08.571Z,12.04
2018-08-11T03:26:08.659Z,12.02
2018-08-11T03:28:09.002Z,11.99
2018-08-11T03:29:09.300Z,12.07
2018-08-11T03:30:09.275Z,12.07
2018-08-11T03:31:10.282Z,12.04
2018-08-11T03:32:09.643Z,12.02
2018-08-11T03:33:09.691Z,12.02
2018-08-11T03:34:09.971Z,12.00
2018-08-11T03:35:10.239Z,11.94
2018-08-11T03:36:10.493Z,11.90
2018-08-11T03:37:10.504Z,11.91
2018-08-11T03:38:10.687Z,11.84
2018-08-11T03:39:10.821Z,11.90
2018-08-11T03:40:11.063Z,11.99
2018-08-11T03:41:11.238Z,12.03
2018-08-11T03:42:11.362Z,12.09
2018-08-11T03:43:11.696Z,12.17
2018-08-11T03:44:11.837Z,12.10
2018-08-11T03:45:11.964Z,12.20
2018-08-11T03:46:12.329Z,12.20
2018-08-11T03:47:12.528Z,12.06
2018-08-11T03:48:12.697Z,12.07
2018-08-11T03:49:12.792Z,12.06
2018-08-11T03:50:12.861Z,12.20
2018-08-11T03:51:13.130Z,12.17
2018-08-11T03:52:13.316Z,12.13
2018-08-11T03:53:13.617Z,12.24
2018-08-11T03:54:15.393Z,12.22
2018-08-11T03:59:37.756Z,12.24
2018-08-11T04:00:38.064Z,12.24
2018-08-11T04:01:38.246Z,12.29
2018-08-11T04:02:38.579Z,12.20
2018-08-11T04:03:38.276Z,12.18
2018-08-11T04:04:39.008Z,12.24
2018-08-11T04:05:37.350Z,12.22
2018-08-11T04:06:36.775Z,12.24
2018-08-11T04:07:36.804Z,12.29
2018-08-11T04:08:36.927Z,12.27
2018-08-11T04:09:37.262Z,12.35
2018-08-11T04:10:37.405Z,12.39
2018-08-11T04:11:37.560Z,12.37
2018-08-11T04:12:37.725Z,12.40
2018-08-11T04:13:37.805Z,12.32
2018-08-11T04:14:38.080Z,12.45
2018-08-11T04:15:38.432Z,12.40
2018-08-11T04:16:38.529Z,12.42
2018-08-11T04:17:38.514Z,12.37
2018-08-11T04:18:38.772Z,12.42
2018-08-11T04:19:38.976Z,12.54
2018-08-11T04:20:39.189Z,12.43
2018-08-11T04:21:39.301Z,12.37
2018-08-11T04:22:39.453Z,12.45
2018-08-11T04:23:39.616Z,12.42
2018-08-11T04:24:39.748Z,12.46
2018-08-11T04:25:40.031Z,12.55
2018-08-11T04:26:40.108Z,12.54
2018-08-11T04:27:40.365Z,12.57
2018-08-11T04:28:40.492Z,12.55
2018-08-11T04:29:40.774Z,12.68
2018-08-11T04:30:40.883Z,12.54
2018-08-11T04:31:41.066Z,12.55
2018-08-11T04:32:41.228Z,12.55
2018-08-11T04:33:41.359Z,12.70
2018-08-11T04:34:41.620Z,12.73
2018-08-11T04:35:41.721Z,12.62
2018-08-11T04:36:41.808Z,12.68
2018-08-11T04:37:42.063Z,12.64
2018-08-11T04:38:42.318Z,12.70
2018-08-11T04:39:42.484Z,12.62
2018-08-11T04:40:42.710Z,12.61
2018-08-11T04:41:42.893Z,12.73
2018-08-11T04:42:43.006Z,12.70
2018-08-11T04:43:43.123Z,12.62
2018-08-11T04:44:43.332Z,12.70
2018-08-11T04:45:43.522Z,12.57
2018-08-11T04:46:43.614Z,12.70
2018-08-11T04:47:43.796Z,12.70
2018-08-11T04:48:43.936Z,12.73
2018-08-11T04:49:44.244Z,12.70
2018-08-11T04:50:44.326Z,12.68
2018-08-11T04:51:44.471Z,12.75
2018-08-11T04:52:44.625Z,12.83
2018-08-11T04:53:44.822Z,12.80
2018-08-11T04:54:44.938Z,12.86
2018-08-11T04:55:45.144Z,12.93
2018-08-11T04:56:45.593Z,12.98
2018-08-11T04:57:45.449Z,12.94
2018-08-11T04:58:45.569Z,12.97
2018-08-11T04:59:45.858Z,13.11
2018-08-11T05:00:45.930Z,13.12
2018-08-11T05:01:46.081Z,13.11
2018-08-11T05:02:46.328Z,13.12
2018-08-11T05:03:46.406Z,13.19
2018-08-11T05:04:46.610Z,13.35
2018-08-11T05:05:46.847Z,13.30
2018-08-11T05:06:47.173Z,13.41
2018-08-11T05:07:47.174Z,13.35
2018-08-11T05:08:47.319Z,13.41
2018-08-11T05:09:47.480Z,13.52
2018-08-11T05:10:47.668Z,13.50
2018-08-11T05:11:47.766Z,13.59
2018-08-11T05:12:48.017Z,13.59
2018-08-11T05:13:48.235Z,13.65
2018-08-11T05:14:48.456Z,13.81
2018-08-11T05:15:48.660Z,13.86
2018-08-11T05:16:48.839Z,13.87
2018-08-11T05:18:03.947Z,13.96
2018-08-11T05:18:48.957Z,14.07
2018-08-11T05:20:56.512Z,14.33
2018-08-11T05:22:33.160Z,14.44
2018-08-11T05:24:50.397Z,14.68
2018-08-11T05:26:18.590Z,14.69
2018-08-11T05:26:50.366Z,14.77
2018-08-11T05:27:52.282Z,14.81
2018-08-11T05:28:50.866Z,14.81
2018-08-11T05:29:50.820Z,14.84
2018-08-11T05:31:52.217Z,15.07
2018-08-11T05:32:51.495Z,15.11
2018-08-11T05:33:51.443Z,15.25
2018-08-11T05:36:51.889Z,15.51
2018-08-11T05:37:52.047Z,15.51
2018-08-11T05:38:52.803Z,15.59
2018-08-11T05:39:56.946Z,15.52
2018-08-11T05:40:59.845Z,15.70
2018-08-11T05:41:52.832Z,15.76
2018-08-11T05:44:06.638Z,15.92
2018-08-11T05:45:56.299Z,16.04
2018-08-11T05:46:56.471Z,16.01
2018-08-11T05:48:58.847Z,16.10
2018-08-11T05:50:03.224Z,16.15
2018-08-11T05:52:54.928Z,16.38
2018-08-11T05:53:54.961Z,16.41
2018-08-11T05:54:55.152Z,16.50
2018-08-11T05:55:55.308Z,16.60
2018-08-11T05:56:55.348Z,16.71
2018-08-11T05:57:55.585Z,16.75
2018-08-11T05:58:55.771Z,16.76
2018-08-11T05:59:55.898Z,16.86
2018-08-11T06:00:56.089Z,16.83
2018-08-11T06:01:56.419Z,16.99
2018-08-11T06:02:56.580Z,17.02
2018-08-11T06:03:56.804Z,17.04
2018-08-11T06:04:56.844Z,17.14
2018-08-11T06:05:57.013Z,17.23
2018-08-11T06:06:57.289Z,17.27
2018-08-11T06:07:57.224Z,17.33
2018-08-11T06:08:57.519Z,17.36
2018-08-11T06:09:57.790Z,17.46
2018-08-11T06:10:57.925Z,17.54
2018-08-11T06:11:58.036Z,17.63
2018-08-11T06:12:58.126Z,17.68
2018-08-11T06:13:58.443Z,17.71
2018-08-11T06:14:58.402Z,17.87
2018-08-11T06:15:58.780Z,17.85
2018-08-11T06:16:58.857Z,17.94
2018-08-11T06:17:59.023Z,18.07
2018-08-11T06:18:59.197Z,18.26
2018-08-11T06:19:59.355Z,18.35
2018-08-11T06:20:59.595Z,18.49
2018-08-11T06:21:59.702Z,18.58
2018-08-11T06:22:59.936Z,18.56
2018-08-11T06:24:00.103Z,18.63
2018-08-11T06:25:00.183Z,18.81
2018-08-11T06:26:00.549Z,18.95
2018-08-11T06:27:00.588Z,19.07
2018-08-11T06:28:00.711Z,19.15
2018-08-11T06:29:00.916Z,19.34
2018-08-11T06:30:01.134Z,19.34
2018-08-11T06:31:01.355Z,19.41
2018-08-11T06:32:01.372Z,19.40
2018-08-11T06:33:01.680Z,19.33
2018-08-11T06:34:01.736Z,19.30
2018-08-11T06:35:01.958Z,19.29
2018-08-11T06:36:02.273Z,19.33
2018-08-11T06:37:02.405Z,19.12
2018-08-11T06:38:02.408Z,19.29
2018-08-11T06:39:02.574Z,19.33
2018-08-11T06:40:02.683Z,19.29
2018-08-11T06:41:02.934Z,19.31
2018-08-11T06:42:03.054Z,19.56
2018-08-11T06:43:03.240Z,19.66
2018-08-11T06:44:03.426Z,19.84
2018-08-11T06:45:03.532Z,20.07
2018-08-11T06:46:03.719Z,20.19
2018-08-11T06:47:04.126Z,20.25
2018-08-11T06:48:04.003Z,20.14
2018-08-11T06:49:04.199Z,20.14
2018-08-11T06:50:04.409Z,19.99
2018-08-11T06:51:04.555Z,20.03
2018-08-11T06:52:04.680Z,20.02
2018-08-11T06:53:04.828Z,20.06
2018-08-11T06:54:05.059Z,19.92
2018-08-11T06:55:05.836Z,19.84
2018-08-11T06:56:05.474Z,19.71
2018-08-11T06:57:05.483Z,19.64
2018-08-11T06:58:05.664Z,19.66
2018-08-11T06:59:05.928Z,19.66
2018-08-11T07:00:06.070Z,19.64
2018-08-11T07:01:06.265Z,19.59
2018-08-11T07:02:06.588Z,19.59
2018-08-11T07:03:06.630Z,19.52
2018-08-11T07:04:06.885Z,19.40
2018-08-11T07:05:06.972Z,19.14
2018-08-11T07:06:07.119Z,19.02
2018-08-11T07:07:07.192Z,18.86
2018-08-11T07:08:07.425Z,18.66
2018-08-11T07:09:07.472Z,18.65
2018-08-11T07:10:07.852Z,18.53
2018-08-11T07:11:07.992Z,18.47
2018-08-11T07:12:08.123Z,18.29
2018-08-11T07:13:08.372Z,18.38
2018-08-11T07:14:08.481Z,18.35
2018-08-11T07:15:08.649Z,18.35
2018-08-11T07:16:08.796Z,18.47
2018-08-11T07:17:09.010Z,18.52
2018-08-11T07:18:09.126Z,18.56
2018-08-11T07:19:09.393Z,18.59
2018-08-11T07:20:09.448Z,18.66
2018-08-11T07:21:09.763Z,18.75
2018-08-11T07:22:10.477Z,18.89
2018-08-11T07:23:09.960Z,18.98
2018-08-11T07:24:10.111Z,19.11
2018-08-11T07:25:10.379Z,19.21
2018-08-11T07:26:10.546Z,19.34
2018-08-11T07:27:10.639Z,19.47
2018-08-11T07:28:10.850Z,19.47
2018-08-11T07:29:10.968Z,19.44
2018-08-11T07:30:11.237Z,19.45
2018-08-11T07:31:11.376Z,19.44
2018-08-11T07:32:11.500Z,19.40
2018-08-11T07:33:11.704Z,19.51
2018-08-11T07:34:11.900Z,19.49
2018-08-11T07:35:12.150Z,19.51
2018-08-11T07:36:12.150Z,19.48
2018-08-11T07:37:12.300Z,19.49
2018-08-11T07:38:12.512Z,19.51
2018-08-11T07:39:12.749Z,19.56
2018-08-11T07:40:12.889Z,19.63
2018-08-11T07:41:13.157Z,19.56
2018-08-11T07:42:13.263Z,19.59
2018-08-11T07:43:13.343Z,19.58
2018-08-11T07:44:13.539Z,19.44
2018-08-11T07:45:13.771Z,19.40
2018-08-11T07:46:13.950Z,19.39
2018-08-11T07:47:14.027Z,19.47
2018-08-11T07:48:14.257Z,19.56
2018-08-11T07:49:14.445Z,19.85
2018-08-11T07:50:14.720Z,19.91
2018-08-11T07:51:14.774Z,19.88
2018-08-11T07:52:14.958Z,19.88
2018-08-11T07:53:15.121Z,19.99
2018-08-11T07:54:15.283Z,20.07
2018-08-11T07:55:15.474Z,20.22
2018-08-11T07:56:15.588Z,20.36
2018-08-11T07:57:15.823Z,20.66
2018-08-11T07:58:16.002Z,21.07
2018-08-11T07:59:16.188Z,21.30
2018-08-11T08:00:16.293Z,21.67
2018-08-11T08:01:16.502Z,21.92
2018-08-11T08:02:16.631Z,22.33
2018-08-11T08:03:16.802Z,22.59
2018-08-11T08:04:16.948Z,22.96
2018-08-11T08:05:17.145Z,23.36
2018-08-11T08:06:17.366Z,23.50
2018-08-11T08:07:17.625Z,23.34
2018-08-11T08:08:17.660Z,23.18
2018-08-11T08:09:17.799Z,23.39
2018-08-11T08:10:18.010Z,23.43
2018-08-11T08:11:18.341Z,23.69
2018-08-11T08:12:18.659Z,23.84
2018-08-11T08:13:19.212Z,23.93
2018-08-11T08:14:18.716Z,23.99
2018-08-11T08:15:18.937Z,24.39
2018-08-11T08:16:19.202Z,24.54
2018-08-11T08:17:19.365Z,24.66
2018-08-11T08:18:19.426Z,24.74
2018-08-11T08:19:19.672Z,24.38
2018-08-11T08:20:19.802Z,24.51
2018-08-11T08:21:19.939Z,23.93
2018-08-11T08:22:20.087Z,23.74
2018-08-11T08:23:20.398Z,23.77
2018-08-11T08:24:20.519Z,23.81
2018-08-11T08:25:20.675Z,24.18
2018-08-11T08:26:21.057Z,24.11
2018-08-11T08:27:21.300Z,23.73
2018-08-11T08:28:21.293Z,23.20
2018-08-11T08:29:21.333Z,23.25
2018-08-11T08:30:21.545Z,22.83
2018-08-11T08:31:21.754Z,22.48
2018-08-11T08:32:21.946Z,22.10
2018-08-11T08:33:22.124Z,21.52
2018-08-11T08:34:22.264Z,21.69
2018-08-11T08:35:22.505Z,22.38
2018-08-11T08:36:22.584Z,23.03
2018-08-11T08:37:22.748Z,23.63
2018-08-11T08:38:22.928Z,23.95
2018-08-11T08:39:23.184Z,24.54
2018-08-11T08:40:23.205Z,24.65
2018-08-11T08:41:23.685Z,24.76
2018-08-11T08:42:24.195Z,24.91
2018-08-11T08:43:23.928Z,25.43
2018-08-11T08:44:24.164Z,25.23
2018-08-11T08:45:24.880Z,25.41
2018-08-11T08:46:24.508Z,25.96
2018-08-11T08:47:24.750Z,26.38
2018-08-11T08:48:24.887Z,26.43
2018-08-11T08:49:24.944Z,26.06
2018-08-11T08:50:25.089Z,25.41
2018-08-11T08:51:25.429Z,25.07
2018-08-11T08:52:25.596Z,24.69
2018-08-11T08:53:25.848Z,24.21
2018-08-11T08:54:25.957Z,24.06
2018-08-11T08:55:26.009Z,24.03
2018-08-11T08:56:26.866Z,23.95
2018-08-11T08:57:26.587Z,24.35
2018-08-11T08:58:26.690Z,24.13
2018-08-11T08:59:27.845Z,23.96
2018-08-11T09:00:27.230Z,24.50
2018-08-11T09:01:28.575Z,24.63
2018-08-11T09:02:27.410Z,24.39
2018-08-11T09:03:27.606Z,24.17
2018-08-11T09:04:28.339Z,24.06
2018-08-11T09:05:27.892Z,23.86
2018-08-11T09:06:28.125Z,23.80
2018-08-11T09:07:28.313Z,23.61
2018-08-11T09:08:28.500Z,23.31
2018-08-11T09:09:29.034Z,22.96
2018-08-11T09:10:29.274Z,22.55
2018-08-11T09:11:28.926Z,22.29
2018-08-11T09:12:31.292Z,22.23
2018-08-11T09:13:29.430Z,22.51
2018-08-11T09:14:29.558Z,22.54
2018-08-11T09:15:29.810Z,22.87
2018-08-11T09:16:30.769Z,23.15
2018-08-11T09:17:33.235Z,23.46
2018-08-11T09:18:30.504Z,23.66
2018-08-11T09:19:30.825Z,23.93
2018-08-11T09:20:30.759Z,23.99
2018-08-11T09:22:47.323Z,24.28
2018-08-11T09:23:32.643Z,24.20
2018-08-11T09:24:31.639Z,24.14
2018-08-11T09:25:31.889Z,24.18
2018-08-11T09:26:32.057Z,24.20
2018-08-11T09:27:32.193Z,23.98
2018-08-11T09:28:32.406Z,23.74
2018-08-11T09:29:33.369Z,23.88
2018-08-11T09:30:32.740Z,24.20
2018-08-11T09:31:33.935Z,24.43
2018-08-11T09:32:33.214Z,24.60
2018-08-11T09:33:33.096Z,24.84
2018-08-11T09:34:34.538Z,24.60
2018-08-11T09:35:34.135Z,24.28
2018-08-11T09:36:33.729Z,23.88
2018-08-11T09:37:33.640Z,23.84
2018-08-11T09:38:33.776Z,24.33
2018-08-11T09:39:34.199Z,24.98
2018-08-11T09:40:34.193Z,25.60
2018-08-11T09:41:34.664Z,25.54
2018-08-11T09:42:34.639Z,25.07
2018-08-11T09:43:35.707Z,24.69
2018-08-11T09:44:35.154Z,24.32
2018-08-11T09:45:35.486Z,25.17
2018-08-11T09:46:35.324Z,25.88
2018-08-11T09:47:35.699Z,26.26
2018-08-11T09:48:35.999Z,25.95
2018-08-11T09:49:37.346Z,25.32
2018-08-11T09:50:36.356Z,24.74
2018-08-11T09:51:36.248Z,25.18
2018-08-11T09:52:36.783Z,24.91
2018-08-11T09:53:36.870Z,24.53
2018-08-11T09:54:36.781Z,24.38
2018-08-11T09:55:36.952Z,24.17
2018-08-11T09:56:37.190Z,24.10
2018-08-11T09:57:37.357Z,23.96
2018-08-11T09:58:37.523Z,23.91
2018-08-11T09:59:37.638Z,23.92
2018-08-11T10:00:37.988Z,24.02
2018-08-11T10:01:38.126Z,23.93
2018-08-11T10:02:38.251Z,23.80
2018-08-11T10:03:38.483Z,23.73
2018-08-11T10:04:38.727Z,23.65
2018-08-11T10:05:39.751Z,23.58
2018-08-11T10:06:39.255Z,23.43
2018-08-11T10:07:39.221Z,23.41
2018-08-11T10:08:39.810Z,23.21
2018-08-11T10:09:44.752Z,23.10
2018-08-11T10:10:40.006Z,23.00
2018-08-11T10:11:41.129Z,23.10
2018-08-11T10:12:40.629Z,22.98
2018-08-11T10:13:41.216Z,22.69
2018-08-11T10:14:40.652Z,22.70
2018-08-11T10:15:40.690Z,23.13
2018-08-11T10:16:40.958Z,23.51
2018-08-11T10:17:41.248Z,23.62
2018-08-11T10:18:41.576Z,24.61
2018-08-11T10:19:41.624Z,25.78
2018-08-11T10:21:17.358Z,26.77
2018-08-11T10:22:44.716Z,27.90
2018-08-11T10:23:45.660Z,27.75
2018-08-11T10:24:45.809Z,28.14
2018-08-11T10:25:45.200Z,28.11
2018-08-11T10:26:46.014Z,28.08
2018-08-11T10:27:47.878Z,27.49
2018-08-11T10:28:45.809Z,26.53
2018-08-11T10:29:46.202Z,26.03
2018-08-11T10:30:45.742Z,25.60
2018-08-11T10:31:43.785Z,24.89
2018-08-11T10:32:43.758Z,24.69
2018-08-11T10:33:44.353Z,25.14
2018-08-11T10:34:45.721Z,25.72
2018-08-11T10:35:44.569Z,25.53
2018-08-11T10:36:44.754Z,25.38
2018-08-11T10:38:45.261Z,24.91
2018-08-11T10:39:45.260Z,25.65
2018-08-11T10:40:52.227Z,25.59
2018-08-11T10:41:45.797Z,26.21
2018-08-11T10:42:45.720Z,27.00
2018-08-11T10:43:46.072Z,27.67
2018-08-11T10:44:46.066Z,28.08
2018-08-11T10:45:46.303Z,27.48
2018-08-11T10:49:28.611Z,28.48
2018-08-11T10:50:28.995Z,28.88
2018-08-11T10:51:29.299Z,29.20
2018-08-11T10:52:32.256Z,29.12
2018-08-11T10:53:29.681Z,28.93
2018-08-11T10:54:59.416Z,28.30
2018-08-11T10:56:09.919Z,27.65
2018-08-11T10:58:55.371Z,25.46
2018-08-11T11:03:57.368Z,23.86
2018-08-11T11:05:09.675Z,23.71
2018-08-11T11:05:44.311Z,23.65
2018-08-11T11:06:46.668Z,23.55
2018-08-11T11:08:44.598Z,25.07
2018-08-11T11:09:44.492Z,26.21
2018-08-11T11:10:44.479Z,27.39
2018-08-11T11:11:44.859Z,28.11
2018-08-11T11:12:44.858Z,28.89
2018-08-11T11:13:45.145Z,29.13
2018-08-11T11:14:45.258Z,29.47
2018-08-11T11:15:45.381Z,29.93
2018-08-11T11:16:45.595Z,29.27
2018-08-11T11:17:45.701Z,28.69
2018-08-11T11:18:45.935Z,28.62
2018-08-11T11:19:46.057Z,27.82
2018-08-11T11:20:46.237Z,26.95
2018-08-11T11:21:46.304Z,27.15
2018-08-11T11:22:46.576Z,27.71
2018-08-11T11:23:46.815Z,28.37
2018-08-11T11:24:46.940Z,28.78
2018-08-11T11:25:47.238Z,28.84
2018-08-11T11:26:47.339Z,29.61
2018-08-11T11:27:47.611Z,29.93
2018-08-11T11:28:47.683Z,30.50
2018-08-11T11:29:47.799Z,30.84
2018-08-11T11:30:47.949Z,30.73
2018-08-11T11:31:48.209Z,30.44
2018-08-11T11:32:48.354Z,30.61
2018-08-11T11:33:48.667Z,30.53
2018-08-11T11:34:48.697Z,30.84
2018-08-11T11:35:48.927Z,31.14
2018-08-11T11:36:49.040Z,31.49
2018-08-11T11:37:49.310Z,30.61
2018-08-11T11:38:49.354Z,29.78
2018-08-11T11:39:49.587Z,29.84
2018-08-11T11:40:49.803Z,30.12
2018-08-11T11:41:49.926Z,29.90
2018-08-11T11:42:50.212Z,30.66
2018-08-11T11:43:50.316Z,31.42
2018-08-11T11:44:50.483Z,31.73
2018-08-11T11:45:50.681Z,31.55
2018-08-11T11:46:50.741Z,31.49
2018-08-11T11:47:51.140Z,31.46
2018-08-11T11:48:51.157Z,30.18
2018-08-11T11:49:51.285Z,28.91
2018-08-11T11:50:51.515Z,27.74
2018-08-11T11:56:18.654Z,29.51
2018-08-11T11:57:13.689Z,30.08
2018-08-11T12:13:05.165Z,30.94
2018-08-11T12:14:05.835Z,31.37
2018-08-11T12:15:06.082Z,31.84
2018-08-11T12:16:05.090Z,32.43
2018-08-11T12:17:19.908Z,32.68
2018-08-11T12:18:03.907Z,33.39
2018-08-11T12:19:04.834Z,32.33
2018-08-11T12:20:03.841Z,31.94
2018-08-11T12:21:03.938Z,31.20
2018-08-11T12:22:04.581Z,30.84
2018-08-11T12:23:06.093Z,31.42
2018-08-11T12:24:04.401Z,30.48
2018-08-11T12:25:04.685Z,29.78
2018-08-11T12:26:19.473Z,29.13
2018-08-11T12:27:06.665Z,28.41
2018-08-11T12:28:07.205Z,28.72
2018-08-11T12:29:05.613Z,28.64
2018-08-11T12:30:06.011Z,28.63
2018-08-11T12:31:05.704Z,28.74
2018-08-11T12:32:35.101Z,29.63
2018-08-11T12:33:06.986Z,30.05
2018-08-11T12:34:06.572Z,30.16
2018-08-11T12:37:07.104Z,30.12
2018-08-11T12:39:07.121Z,29.84
2018-08-11T12:42:19.016Z,32.04
2018-08-11T12:47:40.474Z,28.33
2018-08-11T12:52:58.860Z,26.53
2018-08-11T12:54:15.417Z,26.37
2018-08-11T12:55:13.327Z,26.23
2018-08-11T12:55:57.570Z,26.23
2018-08-11T13:05:43.922Z,26.23
2018-08-11T13:07:28.158Z,26.37
2018-08-11T13:09:22.722Z,28.42
2018-08-11T13:11:25.238Z,29.78
2018-08-11T13:17:29.681Z,31.80
2018-08-11T13:18:03.181Z,32.30
2018-08-11T13:19:01.357Z,32.65
2018-08-11T13:20:14.075Z,32.64
2018-08-11T13:26:09.894Z,31.46
2018-08-11T13:43:21.949Z,31.74
2018-08-11T14:11:18.348Z,33.02
2018-08-11T14:24:52.428Z,32.48
2018-08-11T14:37:05.511Z,30.85
2018-08-11T14:39:20.726Z,30.88
2018-08-11T14:39:26.503Z,31.37
2018-08-11T14:55:48.965Z,31.65
2018-08-11T15:12:51.890Z,31.03
2018-08-11T15:25:00.806Z,31.90
2018-08-11T15:43:18.502Z,31.10
2018-08-11T15:44:17.730Z,31.33
2018-08-11T15:46:17.044Z,30.69
2018-08-11T15:48:17.226Z,30.59
2018-08-11T15:50:34.832Z,30.75
2018-08-11T15:57:17.894Z,30.44
2018-08-11T16:02:19.917Z,29.34
2018-08-11T16:03:23.461Z,29.29
2018-08-11T16:04:21.445Z,29.02
2018-08-11T16:05:20.217Z,28.67
2018-08-11T16:06:21.228Z,28.79
2018-08-11T16:07:18.598Z,28.67
2018-08-11T16:08:17.036Z,28.59
2018-08-11T16:14:46.230Z,27.17
2018-08-11T16:21:16.048Z,25.84
2018-08-11T16:22:16.616Z,25.88
2018-08-11T16:23:16.916Z,25.83
2018-08-11T16:24:16.778Z,25.88
2018-08-11T16:25:17.108Z,25.85
2018-08-11T16:26:15.357Z,25.85
2018-08-11T16:28:14.834Z,25.63
2018-08-11T16:37:05.475Z,25.41
2018-08-11T16:38:05.773Z,25.53
2018-08-11T16:39:07.085Z,25.35
2018-08-11T16:47:27.896Z,25.50
2018-08-11T16:48:27.615Z,25.47
2018-08-11T16:49:28.956Z,25.36
2018-08-11T16:50:28.140Z,25.21
2018-08-11T16:51:27.872Z,25.25
2018-08-11T16:52:28.583Z,25.29
2018-08-11T16:53:26.405Z,25.22
2018-08-11T16:54:26.329Z,25.21
2018-08-11T16:59:27.198Z,24.68
2018-08-11T17:05:56.364Z,24.68
2018-08-11T17:07:23.567Z,24.70
2018-08-11T17:08:56.380Z,24.69
2018-08-11T17:09:57.349Z,24.58
2018-08-11T17:10:57.693Z,24.54
2018-08-11T17:11:58.016Z,24.54
2018-08-11T17:14:00.373Z,24.54
2018-08-11T17:15:00.357Z,24.45
2018-08-11T17:15:59.172Z,24.51
2018-08-11T17:16:57.971Z,24.53
2018-08-11T17:17:58.212Z,24.55
2018-08-11T17:18:58.315Z,24.55
2018-08-11T17:20:00.270Z,24.51
2018-08-11T17:20:59.051Z,24.45
2018-08-11T17:21:59.185Z,24.35
2018-08-11T17:22:59.086Z,24.29
2018-08-11T17:24:00.740Z,24.23
2018-08-11T17:25:00.200Z,24.17
2018-08-11T17:26:00.225Z,24.18
2018-08-11T17:26:59.979Z,24.14
2018-08-11T17:28:39.783Z,24.14
2018-08-11T17:30:00.254Z,24.01
2018-08-11T17:31:00.414Z,23.98
2018-08-11T17:32:01.598Z,23.84
2018-08-11T17:34:03.994Z,23.88
2018-08-11T17:35:01.293Z,23.95
2018-08-11T17:36:02.687Z,23.88
2018-08-11T17:37:01.628Z,23.81
2018-08-11T17:52:47.896Z,23.25
2018-08-11T17:54:44.329Z,23.18
2018-08-11T17:55:08.412Z,23.25
2018-08-11T17:56:52.149Z,23.15
2018-08-11T17:57:49.639Z,23.15
2018-08-11T18:05:19.867Z,22.99
2018-08-11T18:06:17.357Z,23.09
2018-08-11T18:09:18.552Z,22.99
2018-08-11T18:10:18.160Z,23.00
2018-08-11T18:33:52.515Z,21.99
2018-08-11T18:49:51.170Z,21.07
2018-08-11T18:57:10.705Z,20.80
2018-08-11T18:59:15.697Z,20.70
2018-08-11T19:04:38.700Z,20.28
2018-08-11T19:11:55.749Z,19.67
2018-08-11T19:12:44.180Z,19.58
2018-08-11T19:14:47.206Z,19.47
2018-08-11T19:15:41.478Z,19.41
2018-08-11T19:16:41.140Z,19.40
2018-08-11T19:17:40.868Z,19.22
2018-08-11T19:18:40.749Z,19.14
2018-08-11T19:20:41.132Z,18.98
2018-08-11T19:21:41.285Z,18.83
2018-08-11T19:22:41.687Z,18.81
2018-08-11T19:23:41.629Z,18.66
2018-08-11T19:25:42.440Z,18.62
2018-08-11T19:28:43.762Z,18.52
2018-08-11T19:29:45.020Z,18.41
2018-08-11T19:32:43.721Z,18.35
2018-08-11T19:34:45.331Z,18.29
2018-08-11T19:35:46.329Z,18.26
2018-08-11T19:39:08.829Z,18.23
2018-08-11T19:41:00.208Z,18.23
2018-08-11T19:41:45.779Z,18.16
2018-08-11T19:43:45.422Z,18.05
2018-08-11T19:44:47.523Z,18.13
2018-08-11T19:46:49.519Z,18.07
2018-08-11T19:48:43.660Z,18.03
2018-08-11T19:48:46.305Z,17.89
2018-08-11T19:49:49.416Z,17.89
2018-08-11T19:50:48.598Z,18.00
2018-08-11T19:51:51.512Z,17.82
2018-08-11T19:52:52.691Z,17.90
2018-08-11T19:53:55.522Z,17.80
2018-08-11T19:55:52.449Z,17.70
2018-08-11T19:57:47.847Z,17.63
2018-08-11T19:58:48.345Z,17.57
2018-08-11T19:59:48.829Z,17.49
2018-08-11T20:01:48.793Z,17.45
2018-08-11T20:03:48.915Z,17.27
2018-08-11T20:04:49.272Z,17.27
2018-08-11T20:08:50.803Z,16.99
2018-08-11T20:10:05.261Z,17.01
2018-08-11T20:11:50.567Z,16.93
2018-08-11T20:12:50.825Z,16.94
2018-08-11T20:13:50.842Z,16.83
2018-08-11T20:14:51.229Z,16.84
2018-08-11T20:16:56.458Z,16.74
2018-08-11T20:22:05.710Z,16.54
2018-08-11T20:24:04.815Z,16.43
2018-08-11T20:25:14.377Z,16.29
2018-08-11T20:28:06.990Z,16.20
2018-08-11T20:30:40.523Z,16.05
2018-08-11T20:31:38.313Z,16.02
2018-08-11T20:32:38.738Z,16.00
2018-08-11T20:33:38.569Z,16.00
2018-08-11T20:34:39.269Z,15.98
2018-08-11T20:35:40.863Z,15.94
2018-08-11T20:36:38.983Z,15.94
2018-08-11T20:37:37.446Z,15.95
2018-08-11T20:38:37.123Z,15.90
2018-08-11T20:39:37.074Z,15.86
2018-08-11T20:40:37.379Z,15.82
2018-08-11T20:41:37.556Z,15.91
2018-08-11T20:43:37.704Z,15.83
2018-08-11T20:44:41.443Z,15.75
2018-08-11T20:45:40.919Z,15.76
2018-08-11T20:49:42.624Z,15.67
2018-08-11T20:50:42.753Z,15.67
2018-08-11T20:51:43.758Z,15.64
2018-08-11T20:52:54.805Z,15.73
